Time;durP1;ratioP1;P1;durP2;ratioP2;P2;SDS_P1;SDS_P2;PMS_P1;PMS_P2;Temp;Humidity;BMP_temperature;BMP_pressure;BME280_temperature;BME280_humidity;BME280_pressure;Samples;Min_cycle;Max_cycle;Signal;HPM_P1;HPM_P2
2022/12/31 00:01:13;;;;;;;0.60;0.60;;;4.00;99.90;;;;;;5067948;28;20287;-72
2022/12/31 00:03:40;;;;;;;0.45;0.45;;;4.00;99.90;;;;;;5063782;28;20690;-71
2022/12/31 00:06:15;;;;;;;0.60;0.60;;;4.00;99.90;;;;;;5092478;28;20200;-73
2022/12/31 00:08:41;;;;;;;0.50;0.50;;;4.00;99.90;;;;;;5074004;28;20630;-71
2022/12/31 00:11:07;;;;;;;0.50;0.50;;;4.10;99.90;;;;;;5091911;28;20237;-73
2022/12/31 00:13:32;;;;;;;0.50;0.50;;;4.10;99.90;;;;;;5091653;28;20189;-71
2022/12/31 00:16:09;;;;;;;0.65;0.65;;;4.10;99.90;;;;;;5092031;28;20273;-72
2022/12/31 00:18:35;;;;;;;0.55;0.55;;;4.10;99.90;;;;;;5091947;28;20222;-72
2022/12/31 00:21:08;;;;;;;0.45;0.45;;;4.20;99.90;;;;;;5092067;28;20192;-73
2022/12/31 00:23:35;;;;;;;0.82;0.82;;;4.10;99.90;;;;;;5091642;28;20208;-73
2022/12/31 00:26:23;;;;;;;0.70;0.70;;;4.20;99.90;;;;;;5074071;28;20199;-72
2022/12/31 00:28:50;;;;;;;0.60;0.60;;;4.20;99.90;;;;;;5073734;28;20273;-71
2022/12/31 00:31:22;;;;;;;0.57;0.57;;;4.10;99.90;;;;;;5091975;28;20203;-72
2022/12/31 00:33:48;;;;;;;0.55;0.55;;;4.20;99.90;;;;;;5092376;28;20188;-72
2022/12/31 00:36:17;;;;;;;3.50;1.77;;;4.20;99.90;;;;;;5091968;28;20193;-73
2022/12/31 00:38:45;;;;;;;0.63;0.63;;;4.20;99.90;;;;;;5073493;28;20287;-71
2022/12/31 00:41:12;;;;;;;11.90;1.60;;;4.20;99.90;;;;;;5091322;28;20212;-73
2022/12/31 00:43:38;;;;;;;0.50;0.50;;;4.20;99.90;;;;;;5091757;28;20203;-72
2022/12/31 00:46:05;;;;;;;0.93;0.93;;;4.20;99.90;;;;;;5073833;28;20570;-72
2022/12/31 00:48:31;;;;;;;0.60;0.60;;;4.20;99.90;;;;;;5091614;28;20204;-70
2022/12/31 00:50:58;;;;;;;0.60;0.60;;;4.20;99.90;;;;;;5092103;28;20266;-71
2022/12/31 00:53:24;;;;;;;0.55;0.55;;;4.20;99.90;;;;;;5073583;28;20278;-71
2022/12/31 00:55:50;;;;;;;0.60;0.60;;;4.20;99.90;;;;;;5091765;28;20184;-72
2022/12/31 00:58:16;;;;;;;0.70;0.70;;;4.20;99.90;;;;;;5091743;28;20658;-72
2022/12/31 01:00:42;;;;;;;0.63;0.63;;;4.20;99.90;;;;;;5091351;28;20651;-71
2022/12/31 01:03:08;;;;;;;0.60;0.60;;;4.30;99.90;;;;;;5091351;28;20713;-71
2022/12/31 01:05:35;;;;;;;0.65;0.65;;;4.20;99.90;;;;;;5091433;28;20231;-73
2022/12/31 01:08:01;;;;;;;0.60;0.60;;;4.20;99.90;;;;;;5091490;28;20208;-72
2022/12/31 01:13:12;;;;;;;0.50;0.50;;;4.30;99.90;;;;;;5091628;28;20199;-71
2022/12/31 01:15:38;;;;;;;0.52;0.52;;;4.30;99.90;;;;;;5091428;28;20585;-72
2022/12/31 01:18:06;;;;;;;0.52;0.52;;;4.30;99.90;;;;;;5107161;28;20663;-71
2022/12/31 01:20:37;;;;;;;0.60;0.60;;;4.30;99.90;;;;;;5090986;28;20265;-73
2022/12/31 01:23:04;;;;;;;0.60;0.60;;;4.30;99.90;;;;;;5091398;28;20227;-72
2022/12/31 01:25:29;;;;;;;1.08;1.05;;;4.30;99.90;;;;;;5091046;28;20197;-75
2022/12/31 01:27:55;;;;;;;0.70;0.70;;;4.30;99.90;;;;;;5091398;28;20204;-72
2022/12/31 01:30:21;;;;;;;0.60;0.60;;;4.30;99.90;;;;;;5091309;28;20193;-72
2022/12/31 01:32:47;;;;;;;0.57;0.57;;;4.30;99.90;;;;;;5091422;28;20188;-72
2022/12/31 01:35:13;;;;;;;0.60;0.60;;;4.30;99.90;;;;;;5091170;28;20192;-72
2022/12/31 01:37:38;;;;;;;0.60;0.60;;;4.30;99.90;;;;;;5069459;28;20232;-72
2022/12/31 01:40:05;;;;;;;0.60;0.60;;;4.40;99.90;;;;;;5072279;28;20181;-71
2022/12/31 01:42:30;;;;;;;0.50;0.50;;;4.40;99.90;;;;;;5074381;28;20592;-71
2022/12/31 01:44:56;;;;;;;0.60;0.60;;;4.50;99.90;;;;;;5074675;28;20228;-73
2022/12/31 01:47:41;;;;;;;0.57;0.57;;;4.50;99.90;;;;;;5073363;28;20192;-72
2022/12/31 01:50:30;;;;;;;0.50;0.50;;;4.50;99.90;;;;;;5074577;28;20625;-70
2022/12/31 01:52:59;;;;;;;0.50;0.50;;;4.50;99.90;;;;;;5073269;28;20283;-71
2022/12/31 01:55:51;;;;;;;0.60;0.60;;;4.50;99.90;;;;;;5074145;28;20540;-71
2022/12/31 01:58:21;;;;;;;0.75;0.75;;;4.50;99.90;;;;;;5110254;28;20196;-70
2022/12/31 02:00:48;;;;;;;0.65;0.65;;;4.50;99.90;;;;;;5110712;28;20222;-71
2022/12/31 02:03:14;;;;;;;0.70;0.70;;;4.60;99.90;;;;;;5118110;22;20231;-70
2022/12/31 02:05:58;;;;;;;0.70;0.70;;;4.50;99.90;;;;;;5115106;28;20234;-70
2022/12/31 02:08:24;;;;;;;0.60;0.60;;;4.60;99.90;;;;;;5114725;28;20237;-71
2022/12/31 02:10:50;;;;;;;0.50;0.50;;;4.60;99.90;;;;;;5096594;28;20195;-71
2022/12/31 02:13:15;;;;;;;0.70;0.70;;;4.60;99.90;;;;;;5096567;28;20199;-71
2022/12/31 02:16:17;;;;;;;0.70;0.70;;;4.60;99.90;;;;;;5109233;28;20242;-72
2022/12/31 02:18:55;;;;;;;0.60;0.60;;;4.60;99.90;;;;;;5094330;28;20191;-72
2022/12/31 02:21:40;;;;;;;0.60;0.60;;;4.70;99.90;;;;;;5092588;28;20577;-71
2022/12/31 02:24:21;;;;;;;0.50;0.50;;;4.70;99.90;;;;;;5094223;28;20226;-72
2022/12/31 02:26:53;;;;;;;0.50;0.50;;;4.70;99.90;;;;;;5094309;28;20223;-71
2022/12/31 02:29:34;;;;;;;0.52;0.52;;;4.80;99.90;;;;;;5092670;28;20220;-71
2022/12/31 02:32:06;;;;;;;0.50;0.50;;;4.80;99.90;;;;;;5080980;28;20558;-73
2022/12/31 02:34:36;;;;;;;0.68;0.68;;;4.90;99.90;;;;;;5073864;28;20211;-72
2022/12/31 02:37:07;;;;;;;0.50;0.50;;;4.90;99.90;;;;;;5073889;28;20232;-72
2022/12/31 02:39:34;;;;;;;0.60;0.60;;;5.00;99.90;;;;;;5073395;28;20201;-72
2022/12/31 02:42:01;;;;;;;0.70;0.70;;;5.00;99.90;;;;;;5073882;28;20197;-72
2022/12/31 02:44:32;;;;;;;0.60;0.60;;;5.10;99.90;;;;;;5072273;28;20690;-72
2022/12/31 02:47:05;;;;;;;0.65;0.65;;;5.10;99.90;;;;;;5072629;28;20193;-72
2022/12/31 02:49:42;;;;;;;0.70;0.70;;;5.20;99.90;;;;;;5076622;28;20224;-72
2022/12/31 02:52:08;;;;;;;0.65;0.65;;;5.30;99.90;;;;;;5108287;28;20557;-72
2022/12/31 02:54:43;;;;;;;0.60;0.60;;;5.20;99.90;;;;;;5093508;28;20189;-73
2022/12/31 02:57:38;;;;;;;0.60;0.60;;;5.20;99.90;;;;;;5093969;28;20191;-72
2022/12/31 03:02:56;;;;;;;0.60;0.60;;;5.20;99.90;;;;;;5092695;28;20607;-73
2022/12/31 03:05:26;;;;;;;0.52;0.52;;;5.20;99.90;;;;;;5093003;28;20701;-72
2022/12/31 03:07:52;;;;;;;0.60;0.60;;;5.30;99.90;;;;;;5075298;28;20228;-72
2022/12/31 03:10:18;;;;;;;0.60;0.60;;;5.30;99.90;;;;;;5093170;28;20638;-73
2022/12/31 03:12:47;;;;;;;0.50;0.50;;;5.30;99.90;;;;;;5081132;28;20471;-77
2022/12/31 03:15:33;;;;;;;0.50;0.50;;;5.40;99.90;;;;;;5073056;28;20197;-78
2022/12/31 03:18:12;;;;;;;0.50;0.50;;;5.40;99.90;;;;;;5073028;28;20283;-75
2022/12/31 03:23:38;;;;;;;0.70;0.70;;;5.40;99.90;;;;;;5072243;28;20204;-72
2022/12/31 03:26:09;;;;;;;0.65;0.65;;;5.40;99.90;;;;;;5072331;28;20626;-73
2022/12/31 03:28:35;;;;;;;0.50;0.50;;;5.40;99.90;;;;;;5054029;28;20219;-71
2022/12/31 03:31:02;;;;;;;0.60;0.60;;;5.50;99.90;;;;;;5071940;28;20247;-71
2022/12/31 03:33:33;;;;;;;0.60;0.60;;;5.50;99.90;;;;;;5072469;28;20220;-72
2022/12/31 03:36:03;;;;;;;0.50;0.50;;;5.60;99.90;;;;;;5072660;28;20223;-72
2022/12/31 03:38:29;;;;;;;0.50;0.50;;;5.60;99.90;;;;;;5071642;28;20668;-73
2022/12/31 03:40:55;;;;;;;0.60;0.60;;;5.60;99.90;;;;;;5054287;28;20197;-73
2022/12/31 03:43:21;;;;;;;0.50;0.50;;;5.60;99.90;;;;;;5072187;28;20254;-72
2022/12/31 03:45:51;;;;;;;0.60;0.60;;;5.60;99.90;;;;;;5054295;28;20193;-73
2022/12/31 03:48:18;;;;;;;0.60;0.60;;;5.70;99.90;;;;;;5067748;28;20205;-72
2022/12/31 03:50:43;;;;;;;0.50;0.50;;;5.70;99.90;;;;;;5034298;28;20292;-72
2022/12/31 03:53:09;;;;;;;0.52;0.52;;;5.70;99.90;;;;;;5052195;28;20264;-72
2022/12/31 03:55:35;;;;;;;0.60;0.60;;;5.70;99.90;;;;;;5052035;28;20190;-72
2022/12/31 03:58:01;;;;;;;0.50;0.50;;;5.70;99.90;;;;;;5034298;28;20205;-72
2022/12/31 04:00:28;;;;;;;0.40;0.40;;;5.70;99.90;;;;;;5055164;28;20250;-72
2022/12/31 04:02:54;;;;;;;0.50;0.50;;;5.80;99.90;;;;;;5056095;28;20224;-72
2022/12/31 04:05:20;;;;;;;1.50;1.05;;;5.80;99.90;;;;;;5072069;28;20681;-72
2022/12/31 04:07:46;;;;;;;0.50;0.50;;;5.80;99.90;;;;;;5071984;28;20204;-73
2022/12/31 04:10:14;;;;;;;0.50;0.50;;;5.70;99.90;;;;;;5054320;28;20803;-73
2022/12/31 04:12:40;;;;;;;0.50;0.50;;;5.80;99.90;;;;;;5071719;28;20279;-72
2022/12/31 04:15:07;;;;;;;0.60;0.60;;;5.80;99.90;;;;;;5072123;28;20316;-72
2022/12/31 04:17:33;;;;;;;0.70;0.70;;;5.80;99.90;;;;;;5071821;28;20558;-73
2022/12/31 04:19:59;;;;;;;0.63;0.63;;;5.80;99.90;;;;;;5071328;28;20200;-72
2022/12/31 04:22:25;;;;;;;0.70;0.70;;;5.70;99.90;;;;;;5071752;28;20189;-73
2022/12/31 04:24:50;;;;;;;1.00;1.00;;;5.70;99.90;;;;;;5054248;28;20197;-73
2022/12/31 04:27:17;;;;;;;0.50;0.50;;;5.70;99.90;;;;;;5071667;28;20254;-73
2022/12/31 04:29:42;;;;;;;0.60;0.60;;;5.70;99.90;;;;;;5071736;28;20722;-71
2022/12/31 04:32:09;;;;;;;0.50;0.50;;;5.60;99.90;;;;;;5071926;28;20272;-73
2022/12/31 04:34:35;;;;;;;0.95;0.80;;;5.60;99.90;;;;;;5071724;28;20189;-73
2022/12/31 04:37:01;;;;;;;0.77;0.77;;;5.70;99.90;;;;;;5071676;28;20683;-73
2022/12/31 04:39:27;;;;;;;0.70;0.70;;;5.80;99.90;;;;;;5071299;28;20224;-73
2022/12/31 04:41:53;;;;;;;0.50;0.50;;;5.80;99.90;;;;;;5071719;28;20193;-73
2022/12/31 04:44:19;;;;;;;0.47;0.47;;;5.80;99.90;;;;;;5053411;28;20208;-73
2022/12/31 04:46:45;;;;;;;0.50;0.50;;;5.80;99.90;;;;;;5071613;28;20705;-73
2022/12/31 04:49:11;;;;;;;0.55;0.55;;;5.80;99.90;;;;;;5041527;28;20555;-73
2022/12/31 04:51:38;;;;;;;0.50;0.50;;;5.80;99.90;;;;;;5051705;28;20243;-72
2022/12/31 04:54:04;;;;;;;0.50;0.50;;;5.80;99.90;;;;;;5051666;28;20194;-74
2022/12/31 04:56:31;;;;;;;0.50;0.50;;;5.80;99.90;;;;;;5051487;28;20660;-73
2022/12/31 04:58:56;;;;;;;0.60;0.60;;;5.80;99.90;;;;;;5032989;28;20247;-73
2022/12/31 05:01:22;;;;;;;0.60;0.60;;;5.80;99.90;;;;;;5033183;28;20296;-73
2022/12/31 05:03:48;;;;;;;0.50;0.50;;;5.80;99.90;;;;;;5066587;28;20709;-75
2022/12/31 05:06:18;;;;;;;1.40;1.30;;;5.80;99.90;;;;;;5073642;28;20227;-73
2022/12/31 05:08:44;;;;;;;10.13;1.50;;;5.70;99.90;;;;;;5079092;28;20205;-72
2022/12/31 05:11:10;;;;;;;0.65;0.65;;;5.70;99.90;;;;;;5071479;28;20216;-73
2022/12/31 05:13:37;;;;;;;0.60;0.60;;;5.70;99.90;;;;;;5072233;28;20189;-73
2022/12/31 05:16:03;;;;;;;0.65;0.65;;;5.70;99.90;;;;;;5074020;28;20224;-73
2022/12/31 05:18:30;;;;;;;0.40;0.40;;;5.80;99.90;;;;;;5075091;28;20211;-73
2022/12/31 05:20:56;;;;;;;0.50;0.50;;;5.80;99.90;;;;;;5075129;28;20586;-73
2022/12/31 05:23:22;;;;;;;0.60;0.60;;;5.80;99.90;;;;;;5076766;28;20196;-73
2022/12/31 05:25:48;;;;;;;0.57;0.57;;;5.80;99.90;;;;;;5077171;28;20202;-73
2022/12/31 05:28:15;;;;;;;0.88;0.88;;;5.90;99.90;;;;;;5095367;28;20208;-73
2022/12/31 05:30:42;;;;;;;0.55;0.55;;;5.90;99.90;;;;;;5094953;28;20207;-73
2022/12/31 05:33:08;;;;;;;0.60;0.60;;;6.10;99.90;;;;;;5076832;28;20228;-72
2022/12/31 05:35:34;;;;;;;0.70;0.70;;;6.10;99.90;;;;;;5095106;28;20191;-73
2022/12/31 05:38:00;;;;;;;0.50;0.50;;;6.00;99.90;;;;;;5072665;28;20246;-73
2022/12/31 05:40:26;;;;;;;0.60;0.60;;;6.10;99.90;;;;;;5074664;28;20189;-72
2022/12/31 05:42:52;;;;;;;0.70;0.70;;;6.10;99.90;;;;;;5084057;28;20717;-73
2022/12/31 05:45:18;;;;;;;0.70;0.70;;;6.10;99.90;;;;;;5094995;28;20295;-72
2022/12/31 05:47:44;;;;;;;1.52;1.08;;;6.20;99.90;;;;;;5095106;28;20704;-73
2022/12/31 05:50:14;;;;;;;0.70;0.70;;;6.20;99.90;;;;;;5074759;28;20687;-72
2022/12/31 05:52:40;;;;;;;0.90;0.90;;;6.10;99.90;;;;;;5074430;28;20670;-73
2022/12/31 05:55:06;;;;;;;1.70;1.60;;;6.10;99.90;;;;;;5074542;28;20185;-72
2022/12/31 05:57:32;;;;;;;0.60;0.60;;;6.10;99.90;;;;;;5074363;28;20189;-73
2022/12/31 05:59:58;;;;;;;0.60;0.60;;;6.10;99.90;;;;;;5074399;28;20193;-73
2022/12/31 06:02:23;;;;;;;0.60;0.60;;;6.10;99.90;;;;;;5093207;28;20311;-73
2022/12/31 06:04:49;;;;;;;0.60;0.60;;;6.10;99.90;;;;;;5083607;28;20240;-73
2022/12/31 06:07:15;;;;;;;0.60;0.60;;;6.00;99.90;;;;;;5072948;28;20196;-72
2022/12/31 06:09:41;;;;;;;0.63;0.63;;;6.00;99.90;;;;;;5073977;28;20213;-73
2022/12/31 06:12:07;;;;;;;0.77;0.77;;;5.90;99.90;;;;;;5074103;28;20228;-72
2022/12/31 06:14:33;;;;;;;0.60;0.60;;;6.00;99.90;;;;;;5073749;28;20291;-73
2022/12/31 06:16:59;;;;;;;0.60;0.60;;;6.00;99.90;;;;;;5073647;28;20185;-73
2022/12/31 06:19:25;;;;;;;0.73;0.73;;;5.90;99.90;;;;;;5074177;28;20697;-73
2022/12/31 06:21:51;;;;;;;0.50;0.50;;;5.90;99.90;;;;;;5094051;28;20203;-73
2022/12/31 06:24:17;;;;;;;0.82;0.82;;;5.90;99.90;;;;;;5075822;28;20200;-73
2022/12/31 06:26:42;;;;;;;0.50;0.50;;;5.90;99.90;;;;;;5093196;28;20249;-73
2022/12/31 06:29:09;;;;;;;0.50;0.50;;;5.90;99.90;;;;;;5076147;28;20297;-72
2022/12/31 06:31:35;;;;;;;0.60;0.60;;;5.80;99.90;;;;;;5093781;28;20780;-73
2022/12/31 06:34:02;;;;;;;0.52;0.52;;;5.80;99.90;;;;;;5076115;28;20658;-72
2022/12/31 06:36:27;;;;;;;0.60;0.60;;;5.80;99.90;;;;;;5093869;28;20554;-72
2022/12/31 06:38:54;;;;;;;0.80;0.75;;;5.90;99.90;;;;;;5072302;28;20207;-73
2022/12/31 06:41:20;;;;;;;0.60;0.60;;;5.80;99.90;;;;;;5072050;28;20219;-72
2022/12/31 06:43:46;;;;;;;0.80;0.80;;;5.90;99.90;;;;;;5073741;28;20647;-73
2022/12/31 06:46:14;;;;;;;0.60;0.60;;;5.90;99.90;;;;;;5091970;28;20200;-73
2022/12/31 06:48:43;;;;;;;0.63;0.63;;;5.80;99.90;;;;;;5093526;28;20208;-73
2022/12/31 06:51:12;;;;;;;0.68;0.68;;;5.80;99.90;;;;;;5093781;28;20196;-73
2022/12/31 06:53:39;;;;;;;0.60;0.60;;;5.70;99.90;;;;;;5093645;28;20634;-72
2022/12/31 06:56:07;;;;;;;0.50;0.50;;;5.70;99.90;;;;;;5093715;28;20249;-73
2022/12/31 06:58:33;;;;;;;0.50;0.50;;;5.70;99.90;;;;;;5074734;28;20196;-73
2022/12/31 07:01:27;;;;;;;0.70;0.70;;;5.60;99.90;;;;;;5083511;28;20350;-73
2022/12/31 07:04:12;;;;;;;0.50;0.50;;;5.60;99.90;;;;;;5055846;28;20271;-73
2022/12/31 07:06:48;;;;;;;0.60;0.60;;;5.60;99.90;;;;;;5093292;28;20200;-73
2022/12/31 07:09:29;;;;;;;0.57;0.57;;;5.70;99.90;;;;;;5093438;28;20633;-73
2022/12/31 07:12:05;;;;;;;1.65;1.35;;;5.60;99.90;;;;;;5075221;28;20199;-73
2022/12/31 07:14:39;;;;;;;0.60;0.60;;;5.60;99.90;;;;;;5074998;28;20202;-73
2022/12/31 07:17:33;;;;;;;0.70;0.70;;;5.60;99.90;;;;;;5092878;28;20665;-73
2022/12/31 07:20:08;;;;;;;0.60;0.60;;;5.70;99.90;;;;;;5073841;28;20207;-72
2022/12/31 07:22:34;;;;;;;0.50;0.50;;;5.70;99.90;;;;;;5073407;28;20727;-73
2022/12/31 07:25:00;;;;;;;1.50;1.40;;;5.70;99.90;;;;;;5091742;28;20196;-72
2022/12/31 07:27:46;;;;;;;0.50;0.50;;;5.80;99.90;;;;;;5091507;28;20508;-73
2022/12/31 07:30:18;;;;;;;0.60;0.60;;;5.80;99.90;;;;;;5073753;28;20200;-72
2022/12/31 07:33:12;;;;;;;0.57;0.57;;;5.70;99.90;;;;;;5073449;28;20184;-72
2022/12/31 07:35:56;;;;;;;0.50;0.50;;;5.70;99.90;;;;;;5091532;28;20192;-73
2022/12/31 07:38:53;;;;;;;1.75;1.50;;;5.70;99.90;;;;;;5090133;28;20199;-73
2022/12/31 07:41:41;;;;;;;2.85;1.83;;;5.60;99.90;;;;;;5091469;28;20705;-73
2022/12/31 07:44:21;;;;;;;7.05;1.67;;;5.70;99.90;;;;;;5090429;28;20316;-73
2022/12/31 07:46:54;;;;;;;0.50;0.50;;;5.70;99.90;;;;;;5071487;28;20199;-72
2022/12/31 07:49:21;;;;;;;0.60;0.60;;;5.60;99.90;;;;;;5071042;28;20250;-74
2022/12/31 07:51:47;;;;;;;7.22;1.95;;;5.60;99.90;;;;;;5072271;28;20685;-72
2022/12/31 07:54:12;;;;;;;0.50;0.50;;;5.50;99.90;;;;;;5086058;28;20286;-72
2022/12/31 07:56:39;;;;;;;0.70;0.70;;;5.60;99.90;;;;;;5074218;28;20319;-72
2022/12/31 07:59:19;;;;;;;5.50;2.35;;;5.50;99.90;;;;;;5092409;28;20237;-73
2022/12/31 08:01:50;;;;;;;0.70;0.70;;;5.50;99.90;;;;;;5092123;28;20290;-73
2022/12/31 08:04:39;;;;;;;0.55;0.55;;;5.50;99.90;;;;;;5089824;28;20635;-72
2022/12/31 08:07:14;;;;;;;0.60;0.60;;;5.50;99.90;;;;;;5092343;28;20697;-71
2022/12/31 08:10:02;;;;;;;0.50;0.50;;;5.60;99.90;;;;;;5092050;28;20203;-71
2022/12/31 08:12:33;;;;;;;0.50;0.50;;;5.60;99.90;;;;;;5054026;28;20227;-70
2022/12/31 08:14:59;;;;;;;0.68;0.68;;;5.60;99.90;;;;;;5092243;28;20551;-71
2022/12/31 08:17:25;;;;;;;0.60;0.60;;;5.60;99.90;;;;;;5073868;28;20219;-72
2022/12/31 08:19:51;;;;;;;0.55;0.55;;;5.70;99.90;;;;;;5092252;28;20184;-72
2022/12/31 08:22:26;;;;;;;0.45;0.45;;;5.80;99.90;;;;;;5092070;28;20192;-71
2022/12/31 08:25:26;;;;;;;0.70;0.70;;;5.80;99.90;;;;;;5092025;28;20234;-73
2022/12/31 08:28:10;;;;;;;0.60;0.60;;;5.70;99.90;;;;;;5091952;28;20644;-72
2022/12/31 08:30:40;;;;;;;0.50;0.50;;;5.80;99.90;;;;;;5092584;28;20684;-72
2022/12/31 08:33:17;;;;;;;0.50;0.50;;;5.90;99.90;;;;;;5112290;28;20195;-72
2022/12/31 08:36:04;;;;;;;0.50;0.50;;;5.90;99.90;;;;;;5094021;28;20188;-71
2022/12/31 08:39:06;;;;;;;0.50;0.50;;;5.90;99.90;;;;;;5101107;28;20520;-72
2022/12/31 08:41:43;;;;;;;0.55;0.55;;;5.90;99.90;;;;;;5049501;28;20211;-73
2022/12/31 08:45:00;;;;;;;0.40;0.40;;;5.90;99.90;;;;;;5073694;28;20235;-73
2022/12/31 08:47:46;;;;;;;1.88;1.77;;;6.10;99.90;;;;;;5046411;28;20258;-72
2022/12/31 08:50:17;;;;;;;0.60;0.60;;;6.00;99.90;;;;;;5094365;28;20192;-73
2022/12/31 08:52:44;;;;;;;0.50;0.50;;;6.00;99.90;;;;;;5077486;28;20230;-72
2022/12/31 08:55:17;;;;;;;1.20;1.10;;;6.00;99.90;;;;;;5095885;28;20196;-72
2022/12/31 08:58:07;;;;;;;0.77;0.77;;;6.00;99.90;;;;;;5095796;28;20188;-72
2022/12/31 09:00:35;;;;;;;0.80;0.80;;;6.10;99.90;;;;;;5095622;28;20721;-74
2022/12/31 09:03:25;;;;;;;4.55;1.15;;;6.10;99.90;;;;;;5074013;28;20307;-73
2022/12/31 09:05:56;;;;;;;0.60;0.60;;;6.20;99.90;;;;;;5075042;28;20189;-74
2022/12/31 09:08:41;;;;;;;0.60;0.60;;;6.20;99.90;;;;;;5078914;28;20271;-73
2022/12/31 09:11:48;;;;;;;0.60;0.60;;;6.20;99.90;;;;;;5077006;28;20191;-73
2022/12/31 09:14:20;;;;;;;0.60;0.60;;;6.20;99.90;;;;;;5095685;28;20199;-72
2022/12/31 09:17:01;;;;;;;0.60;0.60;;;6.20;99.90;;;;;;5095729;28;20209;-72
2022/12/31 09:19:26;;;;;;;0.50;0.50;;;6.20;99.90;;;;;;5095510;28;20192;-73
2022/12/31 09:21:52;;;;;;;0.55;0.55;;;6.30;99.90;;;;;;5095441;28;20184;-72
2022/12/31 09:24:18;;;;;;;0.40;0.40;;;6.40;99.90;;;;;;5095170;28;20224;-72
2022/12/31 09:26:50;;;;;;;0.47;0.47;;;6.40;99.90;;;;;;5076886;28;20313;-73
2022/12/31 09:29:28;;;;;;;0.70;0.70;;;6.40;99.90;;;;;;5076448;28;20211;-74
2022/12/31 09:32:22;;;;;;;4.13;2.35;;;6.40;99.90;;;;;;5076534;28;20196;-73
2022/12/31 09:34:55;;;;;;;0.60;0.60;;;6.40;99.90;;;;;;5095459;28;20204;-74
2022/12/31 09:37:38;;;;;;;7.05;2.13;;;6.40;99.90;;;;;;5094962;28;20220;-74
2022/12/31 09:40:52;;;;;;;0.90;0.90;;;6.50;99.90;;;;;;5076874;28;20195;-71
2022/12/31 09:43:40;;;;;;;0.60;0.60;;;6.40;99.90;;;;;;5012535;28;20617;-73
2022/12/31 09:46:18;;;;;;;0.60;0.60;;;6.40;99.90;;;;;;5012422;28;20569;-73
2022/12/31 09:49:14;;;;;;;0.50;0.50;;;6.40;99.90;;;;;;5067858;28;20685;-74
2022/12/31 09:52:01;;;;;;;0.60;0.60;;;6.50;99.90;;;;;;5073448;28;20196;-73
2022/12/31 09:54:39;;;;;;;0.70;0.70;;;6.50;99.90;;;;;;5074498;28;20655;-74
2022/12/31 09:57:35;;;;;;;0.50;0.50;;;6.50;99.90;;;;;;5074507;28;20241;-72
2022/12/31 10:00:04;;;;;;;0.70;0.70;;;6.50;99.90;;;;;;5073998;28;20193;-72
2022/12/31 10:02:42;;;;;;;0.60;0.60;;;6.50;99.90;;;;;;5077816;28;20606;-73
2022/12/31 10:05:29;;;;;;;0.60;0.60;;;6.60;99.90;;;;;;5094984;28;20658;-73
2022/12/31 10:08:02;;;;;;;0.57;0.57;;;6.60;99.90;;;;;;5094489;28;20246;-74
2022/12/31 10:10:45;;;;;;;0.60;0.60;;;6.60;99.90;;;;;;5094382;28;20188;-75
2022/12/31 10:13:25;;;;;;;0.60;0.60;;;6.60;99.90;;;;;;5094371;28;20662;-74
2022/12/31 10:16:14;;;;;;;1.35;1.25;;;6.70;99.90;;;;;;5094399;28;20226;-75
2022/12/31 10:19:19;;;;;;;0.60;0.60;;;6.80;99.90;;;;;;5093605;28;20322;-76
2022/12/31 10:22:13;;;;;;;0.70;0.70;;;6.80;99.90;;;;;;5094513;28;20198;-73
2022/12/31 10:24:50;;;;;;;0.60;0.60;;;6.80;99.90;;;;;;5093887;28;20292;-74
2022/12/31 10:27:24;;;;;;;0.55;0.55;;;6.90;99.90;;;;;;5094118;28;20244;-73
2022/12/31 10:29:57;;;;;;;0.50;0.50;;;6.90;99.90;;;;;;5093934;28;20728;-73
2022/12/31 10:32:38;;;;;;;0.68;0.68;;;6.90;99.90;;;;;;5094030;28;20670;-73
2022/12/31 10:35:38;;;;;;;0.60;0.60;;;7.00;99.90;;;;;;5094151;28;20651;-74
2022/12/31 10:38:31;;;;;;;0.60;0.60;;;7.00;99.90;;;;;;5093729;28;20191;-71
2022/12/31 10:41:29;;;;;;;0.70;0.70;;;7.00;99.90;;;;;;5075618;28;20188;-73
2022/12/31 10:44:25;;;;;;;0.90;0.90;;;7.10;99.90;;;;;;5073562;28;20555;-74
2022/12/31 10:47:06;;;;;;;0.70;0.70;;;7.10;99.90;;;;;;5090964;28;20204;-75
2022/12/31 10:49:40;;;;;;;0.50;0.50;;;7.10;99.90;;;;;;5075355;28;20215;-74
2022/12/31 10:52:40;;;;;;;4.88;1.48;;;7.10;99.90;;;;;;5075455;28;20203;-72
2022/12/31 10:55:24;;;;;;;0.55;0.55;;;7.10;99.90;;;;;;5093375;28;20650;-73
2022/12/31 10:58:25;;;;;;;0.80;0.80;;;7.20;99.90;;;;;;5075291;28;20650;-70
2022/12/31 11:01:12;;;;;;;0.50;0.50;;;7.20;99.90;;;;;;5093052;28;20229;-72
2022/12/31 11:03:44;;;;;;;1.20;1.20;;;7.10;99.90;;;;;;5092715;28;20717;-74
2022/12/31 11:06:40;;;;;;;0.65;0.65;;;7.10;99.90;;;;;;5094068;28;20671;-75
2022/12/31 11:09:43;;;;;;;0.60;0.60;;;7.10;99.90;;;;;;5074772;28;20647;-75
2022/12/31 11:12:27;;;;;;;2.28;1.55;;;7.00;99.90;;;;;;5092986;28;20194;-75
2022/12/31 11:15:11;;;;;;;0.70;0.70;;;7.00;99.90;;;;;;5093127;28;20713;-75
2022/12/31 11:17:53;;;;;;;0.60;0.60;;;7.00;99.90;;;;;;5074820;28;20535;-74
2022/12/31 11:20:42;;;;;;;0.60;0.60;;;7.00;99.90;;;;;;5084804;28;20540;-74
2022/12/31 11:23:13;;;;;;;1.33;1.23;;;7.00;99.90;;;;;;5053978;28;20197;-74
2022/12/31 11:26:03;;;;;;;0.63;0.63;;;7.00;99.90;;;;;;5072653;28;20189;-75
2022/12/31 11:28:40;;;;;;;0.60;0.60;;;7.00;99.90;;;;;;5072701;28;20573;-74
2022/12/31 11:31:21;;;;;;;3.40;1.58;;;7.00;99.90;;;;;;5072511;28;20195;-74
2022/12/31 11:34:05;;;;;;;0.57;0.57;;;7.00;99.90;;;;;;5072663;28;20193;-73
2022/12/31 11:37:04;;;;;;;0.40;0.40;;;6.90;99.90;;;;;;5071709;28;20193;-73
2022/12/31 11:39:47;;;;;;;0.50;0.50;;;7.00;99.90;;;;;;5068953;28;20664;-74
2022/12/31 11:42:28;;;;;;;0.52;0.52;;;6.90;99.90;;;;;;5054593;28;20239;-74
2022/12/31 11:45:13;;;;;;;0.85;0.85;;;6.90;99.90;;;;;;5072591;28;20206;-72
2022/12/31 11:48:02;;;;;;;0.63;0.63;;;6.80;99.90;;;;;;5054294;28;20207;-74
2022/12/31 11:50:43;;;;;;;0.60;0.60;;;6.90;99.90;;;;;;5054346;28;20687;-74
2022/12/31 11:53:48;;;;;;;0.60;0.60;;;6.80;99.90;;;;;;5054400;28;20203;-73
2022/12/31 11:56:24;;;;;;;0.52;0.52;;;6.90;99.90;;;;;;5054260;28;20214;-73
2022/12/31 11:58:55;;;;;;;0.60;0.60;;;6.80;99.90;;;;;;5071842;28;20664;-74
2022/12/31 12:01:38;;;;;;;1.50;1.40;;;6.80;99.90;;;;;;5092089;28;20662;-75
2022/12/31 12:04:04;;;;;;;0.65;0.65;;;6.70;99.90;;;;;;5074018;28;20232;-74
2022/12/31 12:06:31;;;;;;;0.60;0.60;;;6.70;99.90;;;;;;5092202;28;20271;-74
2022/12/31 12:09:13;;;;;;;0.60;0.60;;;6.80;99.90;;;;;;5092207;28;20196;-74
2022/12/31 12:11:40;;;;;;;0.60;0.60;;;6.70;99.90;;;;;;5074083;28;21681;-74
2022/12/31 12:14:29;;;;;;;0.50;0.50;;;6.70;99.90;;;;;;5092159;28;20321;-75
2022/12/31 12:16:56;;;;;;;0.60;0.60;;;6.70;99.90;;;;;;5073774;28;20250;-74
2022/12/31 12:19:25;;;;;;;0.60;0.60;;;6.60;99.90;;;;;;5091867;28;20819;-74
2022/12/31 12:21:52;;;;;;;0.60;0.60;;;6.50;99.90;;;;;;5092135;28;20223;-74
2022/12/31 12:24:21;;;;;;;0.60;0.60;;;6.40;99.90;;;;;;5091427;28;20690;-74
2022/12/31 12:26:48;;;;;;;0.50;0.50;;;6.40;99.90;;;;;;5091996;28;20282;-74
2022/12/31 12:29:13;;;;;;;0.93;0.80;;;6.40;99.90;;;;;;5092073;28;20218;-75
2022/12/31 12:31:40;;;;;;;0.60;0.60;;;6.50;99.90;;;;;;5091890;28;20562;-75
2022/12/31 12:34:23;;;;;;;0.50;0.50;;;6.40;99.90;;;;;;5091948;28;20203;-74
2022/12/31 12:36:50;;;;;;;0.43;0.43;;;6.50;99.90;;;;;;5091867;28;20192;-73
2022/12/31 12:39:23;;;;;;;0.50;0.50;;;6.40;99.90;;;;;;5089964;28;20204;-73
2022/12/31 12:42:09;;;;;;;0.60;0.60;;;6.40;99.90;;;;;;5073576;28;20204;-74
2022/12/31 12:44:35;;;;;;;0.60;0.60;;;6.40;99.90;;;;;;5091698;28;20251;-73
2022/12/31 12:47:05;;;;;;;0.90;0.90;;;6.30;99.90;;;;;;5073999;28;20200;-72
2022/12/31 12:49:41;;;;;;;0.60;0.60;;;6.40;99.90;;;;;;5091549;28;20196;-72
2022/12/31 12:52:28;;;;;;;0.55;0.55;;;6.40;99.90;;;;;;5091753;28;20230;-72
2022/12/31 12:55:03;;;;;;;0.70;0.70;;;6.40;99.90;;;;;;5091576;28;20196;-73
2022/12/31 12:57:53;;;;;;;0.50;0.50;;;6.40;99.90;;;;;;5073562;28;20192;-72
2022/12/31 13:00:36;;;;;;;1.27;1.10;;;6.30;99.90;;;;;;5091617;28;20646;-72
2022/12/31 13:03:24;;;;;;;0.70;0.70;;;6.30;99.90;;;;;;5091424;28;20760;-73
2022/12/31 13:06:18;;;;;;;0.60;0.60;;;6.20;99.90;;;;;;5091560;28;20690;-72
2022/12/31 13:09:08;;;;;;;0.52;0.52;;;6.20;99.90;;;;;;5091416;28;20722;-72
2022/12/31 13:11:55;;;;;;;0.50;0.50;;;6.20;99.90;;;;;;5091667;28;20204;-72
2022/12/31 13:14:32;;;;;;;0.52;0.52;;;6.10;99.90;;;;;;5091456;28;20267;-72
2022/12/31 13:17:37;;;;;;;0.60;0.60;;;6.10;99.90;;;;;;5091551;28;20658;-72
2022/12/31 13:20:06;;;;;;;0.60;0.60;;;6.00;99.90;;;;;;5090923;28;20208;-72
2022/12/31 13:22:38;;;;;;;0.60;0.60;;;6.10;99.90;;;;;;5073241;28;20196;-72
2022/12/31 13:25:03;;;;;;;0.60;0.60;;;6.00;99.90;;;;;;5073743;28;20609;-73
2022/12/31 13:27:42;;;;;;;0.60;0.60;;;6.00;99.90;;;;;;5073267;28;20559;-73
2022/12/31 13:30:37;;;;;;;2.58;1.77;;;5.90;99.90;;;;;;5091039;28;20555;-73
2022/12/31 13:33:24;;;;;;;0.50;0.50;;;5.90;99.90;;;;;;5090464;28;20274;-72
2022/12/31 13:36:06;;;;;;;0.70;0.70;;;5.90;99.90;;;;;;5073672;28;20196;-73
2022/12/31 13:38:42;;;;;;;0.60;0.60;;;5.90;99.90;;;;;;5073134;28;20693;-73
2022/12/31 13:41:13;;;;;;;0.50;0.50;;;5.90;99.90;;;;;;5074577;28;20196;-73
2022/12/31 13:44:05;;;;;;;0.60;0.60;;;6.00;99.90;;;;;;5074482;28;20193;-74